sensor_id;sensor_type;location;lat;lon;timestamp;P1;durP1;ratioP1;P2;durP2;ratioP2
4614;SDS011;2320;51.362;6.946;2024-01-27T00:01:34;14.70;;;5.90;;
4614;SDS011;2320;51.362;6.946;2024-01-27T00:04:00;13.80;;;7.30;;
4614;SDS011;2320;51.362;6.946;2024-01-27T00:06:26;18.93;;;5.30;;
4614;SDS011;2320;51.362;6.946;2024-01-27T00:08:51;14.20;;;4.77;;
4614;SDS011;2320;51.362;6.946;2024-01-27T00:11:17;18.83;;;4.50;;
4614;SDS011;2320;51.362;6.946;2024-01-27T00:13:44;20.73;;;5.70;;
4614;SDS011;2320;51.362;6.946;2024-01-27T00:16:10;12.70;;;4.87;;
4614;SDS011;2320;51.362;6.946;2024-01-27T00:18:36;17.37;;;5.20;;
4614;SDS011;2320;51.362;6.946;2024-01-27T00:21:02;13.40;;;4.80;;
4614;SDS011;2320;51.362;6.946;2024-01-27T00:23:28;20.00;;;5.60;;
4614;SDS011;2320;51.362;6.946;2024-01-27T00:25:54;17.43;;;6.33;;
4614;SDS011;2320;51.362;6.946;2024-01-27T00:28:19;13.03;;;4.77;;
4614;SDS011;2320;51.362;6.946;2024-01-27T00:30:45;10.90;;;5.13;;
4614;SDS011;2320;51.362;6.946;2024-01-27T00:33:10;15.27;;;7.17;;
4614;SDS011;2320;51.362;6.946;2024-01-27T00:35:36;22.67;;;5.90;;
4614;SDS011;2320;51.362;6.946;2024-01-27T00:38:02;19.60;;;5.47;;
4614;SDS011;2320;51.362;6.946;2024-01-27T00:40:27;16.10;;;8.13;;
4614;SDS011;2320;51.362;6.946;2024-01-27T00:42:53;24.97;;;9.03;;
4614;SDS011;2320;51.362;6.946;2024-01-27T00:45:19;18.53;;;6.40;;
4614;SDS011;2320;51.362;6.946;2024-01-27T00:47:47;14.80;;;5.33;;
4614;SDS011;2320;51.362;6.946;2024-01-27T00:50:16;24.30;;;6.17;;
4614;SDS011;2320;51.362;6.946;2024-01-27T00:52:42;14.47;;;5.63;;
4614;SDS011;2320;51.362;6.946;2024-01-27T00:55:07;10.10;;;4.97;;
4614;SDS011;2320;51.362;6.946;2024-01-27T00:57:36;9.10;;;4.70;;
4614;SDS011;2320;51.362;6.946;2024-01-27T01:00:04;13.57;;;6.00;;
4614;SDS011;2320;51.362;6.946;2024-01-27T01:02:33;17.53;;;5.57;;
4614;SDS011;2320;51.362;6.946;2024-01-27T01:04:59;18.83;;;5.50;;
4614;SDS011;2320;51.362;6.946;2024-01-27T01:07:25;16.83;;;6.00;;
4614;SDS011;2320;51.362;6.946;2024-01-27T01:09:50;16.80;;;5.13;;
4614;SDS011;2320;51.362;6.946;2024-01-27T01:12:16;11.80;;;4.90;;
4614;SDS011;2320;51.362;6.946;2024-01-27T01:14:42;16.13;;;4.60;;
4614;SDS011;2320;51.362;6.946;2024-01-27T01:17:08;33.63;;;7.23;;
4614;SDS011;2320;51.362;6.946;2024-01-27T01:19:34;11.00;;;4.70;;
4614;SDS011;2320;51.362;6.946;2024-01-27T01:22:01;15.23;;;4.70;;
4614;SDS011;2320;51.362;6.946;2024-01-27T01:24:26;14.80;;;4.93;;
4614;SDS011;2320;51.362;6.946;2024-01-27T01:26:52;14.73;;;5.50;;
4614;SDS011;2320;51.362;6.946;2024-01-27T01:29:17;14.47;;;4.23;;
4614;SDS011;2320;51.362;6.946;2024-01-27T01:31:43;18.93;;;6.70;;
4614;SDS011;2320;51.362;6.946;2024-01-27T01:34:09;17.80;;;5.03;;
4614;SDS011;2320;51.362;6.946;2024-01-27T01:36:34;14.07;;;4.87;;
4614;SDS011;2320;51.362;6.946;2024-01-27T01:39:00;19.17;;;5.40;;
4614;SDS011;2320;51.362;6.946;2024-01-27T01:41:25;12.37;;;4.77;;
4614;SDS011;2320;51.362;6.946;2024-01-27T01:43:51;19.00;;;6.13;;
4614;SDS011;2320;51.362;6.946;2024-01-27T01:46:17;13.07;;;4.27;;
4614;SDS011;2320;51.362;6.946;2024-01-27T01:48:43;9.70;;;6.70;;
4614;SDS011;2320;51.362;6.946;2024-01-27T01:51:09;16.83;;;5.53;;
4614;SDS011;2320;51.362;6.946;2024-01-27T01:53:35;13.77;;;5.63;;
4614;SDS011;2320;51.362;6.946;2024-01-27T01:56:01;23.10;;;6.20;;
4614;SDS011;2320;51.362;6.946;2024-01-27T01:58:27;10.43;;;5.13;;
4614;SDS011;2320;51.362;6.946;2024-01-27T02:00:59;15.37;;;4.47;;
4614;SDS011;2320;51.362;6.946;2024-01-27T02:03:25;16.20;;;4.70;;
4614;SDS011;2320;51.362;6.946;2024-01-27T02:05:51;10.77;;;4.93;;
4614;SDS011;2320;51.362;6.946;2024-01-27T02:08:17;8.57;;;5.17;;
4614;SDS011;2320;51.362;6.946;2024-01-27T02:10:42;17.30;;;6.10;;
4614;SDS011;2320;51.362;6.946;2024-01-27T02:15:43;16.60;;;5.27;;
4614;SDS011;2320;51.362;6.946;2024-01-27T02:18:09;13.83;;;4.87;;
4614;SDS011;2320;51.362;6.946;2024-01-27T02:20:35;12.37;;;4.23;;
4614;SDS011;2320;51.362;6.946;2024-01-27T02:23:02;10.00;;;3.90;;
4614;SDS011;2320;51.362;6.946;2024-01-27T02:25:29;14.40;;;5.43;;
4614;SDS011;2320;51.362;6.946;2024-01-27T02:27:55;20.27;;;5.30;;
4614;SDS011;2320;51.362;6.946;2024-01-27T02:30:21;16.90;;;4.93;;
4614;SDS011;2320;51.362;6.946;2024-01-27T02:32:46;15.00;;;4.87;;
4614;SDS011;2320;51.362;6.946;2024-01-27T02:35:12;21.00;;;5.43;;
4614;SDS011;2320;51.362;6.946;2024-01-27T02:37:39;11.40;;;5.40;;
4614;SDS011;2320;51.362;6.946;2024-01-27T02:40:05;14.00;;;5.67;;
4614;SDS011;2320;51.362;6.946;2024-01-27T02:42:32;16.70;;;5.77;;
4614;SDS011;2320;51.362;6.946;2024-01-27T02:44:57;13.93;;;5.80;;
4614;SDS011;2320;51.362;6.946;2024-01-27T02:47:23;14.90;;;5.10;;
4614;SDS011;2320;51.362;6.946;2024-01-27T02:49:49;20.87;;;6.13;;
4614;SDS011;2320;51.362;6.946;2024-01-27T02:52:14;15.70;;;6.10;;
4614;SDS011;2320;51.362;6.946;2024-01-27T02:54:40;13.97;;;5.60;;
4614;SDS011;2320;51.362;6.946;2024-01-27T02:57:05;15.77;;;4.70;;
4614;SDS011;2320;51.362;6.946;2024-01-27T02:59:31;17.83;;;5.30;;
4614;SDS011;2320;51.362;6.946;2024-01-27T03:01:56;13.43;;;5.13;;
4614;SDS011;2320;51.362;6.946;2024-01-27T03:04:22;13.70;;;5.90;;
4614;SDS011;2320;51.362;6.946;2024-01-27T03:06:47;12.43;;;5.83;;
4614;SDS011;2320;51.362;6.946;2024-01-27T03:09:13;12.80;;;4.40;;
4614;SDS011;2320;51.362;6.946;2024-01-27T03:11:39;10.90;;;5.20;;
4614;SDS011;2320;51.362;6.946;2024-01-27T03:14:04;13.37;;;5.33;;
4614;SDS011;2320;51.362;6.946;2024-01-27T03:16:30;18.03;;;5.83;;
4614;SDS011;2320;51.362;6.946;2024-01-27T03:18:56;25.30;;;5.70;;
4614;SDS011;2320;51.362;6.946;2024-01-27T03:21:21;16.23;;;5.20;;
4614;SDS011;2320;51.362;6.946;2024-01-27T03:23:47;13.53;;;6.07;;
4614;SDS011;2320;51.362;6.946;2024-01-27T03:26:12;11.47;;;4.87;;
4614;SDS011;2320;51.362;6.946;2024-01-27T03:28:38;10.83;;;5.60;;
4614;SDS011;2320;51.362;6.946;2024-01-27T03:31:03;21.17;;;6.93;;
4614;SDS011;2320;51.362;6.946;2024-01-27T03:33:29;14.10;;;6.20;;
4614;SDS011;2320;51.362;6.946;2024-01-27T03:35:55;10.93;;;6.40;;
4614;SDS011;2320;51.362;6.946;2024-01-27T03:38:21;20.43;;;6.07;;
4614;SDS011;2320;51.362;6.946;2024-01-27T03:40:47;16.03;;;5.70;;
4614;SDS011;2320;51.362;6.946;2024-01-27T03:43:13;17.30;;;6.20;;
4614;SDS011;2320;51.362;6.946;2024-01-27T03:45:38;14.33;;;5.20;;
4614;SDS011;2320;51.362;6.946;2024-01-27T03:48:04;14.60;;;6.13;;
4614;SDS011;2320;51.362;6.946;2024-01-27T03:50:30;20.53;;;6.17;;
4614;SDS011;2320;51.362;6.946;2024-01-27T03:52:55;13.80;;;6.30;;
4614;SDS011;2320;51.362;6.946;2024-01-27T03:55:21;15.63;;;6.00;;
4614;SDS011;2320;51.362;6.946;2024-01-27T03:57:46;15.43;;;6.70;;
4614;SDS011;2320;51.362;6.946;2024-01-27T04:00:12;20.53;;;7.20;;
4614;SDS011;2320;51.362;6.946;2024-01-27T04:02:38;10.37;;;5.37;;
4614;SDS011;2320;51.362;6.946;2024-01-27T04:05:04;12.77;;;5.17;;
4614;SDS011;2320;51.362;6.946;2024-01-27T04:07:30;21.53;;;7.30;;
4614;SDS011;2320;51.362;6.946;2024-01-27T04:09:56;9.50;;;5.53;;
4614;SDS011;2320;51.362;6.946;2024-01-27T04:12:21;11.03;;;6.03;;
4614;SDS011;2320;51.362;6.946;2024-01-27T04:14:47;17.93;;;6.50;;
4614;SDS011;2320;51.362;6.946;2024-01-27T04:17:13;17.83;;;8.10;;
4614;SDS011;2320;51.362;6.946;2024-01-27T04:19:38;18.07;;;8.03;;
4614;SDS011;2320;51.362;6.946;2024-01-27T04:22:04;19.00;;;7.37;;
4614;SDS011;2320;51.362;6.946;2024-01-27T04:24:29;14.60;;;5.90;;
4614;SDS011;2320;51.362;6.946;2024-01-27T04:26:55;12.90;;;7.10;;
4614;SDS011;2320;51.362;6.946;2024-01-27T04:29:20;21.17;;;8.30;;
4614;SDS011;2320;51.362;6.946;2024-01-27T04:31:46;17.80;;;7.90;;
4614;SDS011;2320;51.362;6.946;2024-01-27T04:34:11;12.63;;;6.23;;
4614;SDS011;2320;51.362;6.946;2024-01-27T04:36:37;20.27;;;8.33;;
4614;SDS011;2320;51.362;6.946;2024-01-27T04:39:03;15.60;;;8.27;;
4614;SDS011;2320;51.362;6.946;2024-01-27T04:41:29;13.93;;;6.60;;
4614;SDS011;2320;51.362;6.946;2024-01-27T04:43:55;15.40;;;7.50;;
4614;SDS011;2320;51.362;6.946;2024-01-27T04:46:21;13.20;;;7.00;;
4614;SDS011;2320;51.362;6.946;2024-01-27T04:48:47;18.20;;;7.40;;
4614;SDS011;2320;51.362;6.946;2024-01-27T04:51:13;18.93;;;7.10;;
4614;SDS011;2320;51.362;6.946;2024-01-27T04:53:39;17.60;;;7.10;;
4614;SDS011;2320;51.362;6.946;2024-01-27T04:56:04;11.07;;;7.13;;
4614;SDS011;2320;51.362;6.946;2024-01-27T04:58:33;26.27;;;7.53;;
4614;SDS011;2320;51.362;6.946;2024-01-27T05:01:02;11.50;;;6.47;;
4614;SDS011;2320;51.362;6.946;2024-01-27T05:03:27;18.07;;;7.13;;
4614;SDS011;2320;51.362;6.946;2024-01-27T05:05:53;17.13;;;7.67;;
4614;SDS011;2320;51.362;6.946;2024-01-27T05:08:19;20.67;;;7.10;;
4614;SDS011;2320;51.362;6.946;2024-01-27T05:10:44;14.37;;;6.73;;
4614;SDS011;2320;51.362;6.946;2024-01-27T05:13:10;14.67;;;6.83;;
4614;SDS011;2320;51.362;6.946;2024-01-27T05:15:36;15.73;;;6.60;;
4614;SDS011;2320;51.362;6.946;2024-01-27T05:18:01;17.03;;;7.20;;
4614;SDS011;2320;51.362;6.946;2024-01-27T05:20:27;14.37;;;7.03;;
4614;SDS011;2320;51.362;6.946;2024-01-27T05:22:52;20.50;;;6.90;;
4614;SDS011;2320;51.362;6.946;2024-01-27T05:25:18;24.20;;;7.97;;
4614;SDS011;2320;51.362;6.946;2024-01-27T05:27:44;22.37;;;7.13;;
4614;SDS011;2320;51.362;6.946;2024-01-27T05:30:09;9.10;;;7.10;;
4614;SDS011;2320;51.362;6.946;2024-01-27T05:32:35;20.97;;;8.43;;
4614;SDS011;2320;51.362;6.946;2024-01-27T05:35:01;10.63;;;7.00;;
4614;SDS011;2320;51.362;6.946;2024-01-27T05:37:28;14.00;;;7.47;;
4614;SDS011;2320;51.362;6.946;2024-01-27T05:39:53;24.33;;;7.33;;
4614;SDS011;2320;51.362;6.946;2024-01-27T05:42:19;20.53;;;7.50;;
4614;SDS011;2320;51.362;6.946;2024-01-27T05:44:45;33.80;;;8.40;;
4614;SDS011;2320;51.362;6.946;2024-01-27T05:47:10;15.67;;;7.63;;
4614;SDS011;2320;51.362;6.946;2024-01-27T05:49:36;17.73;;;6.70;;
4614;SDS011;2320;51.362;6.946;2024-01-27T05:52:02;12.97;;;7.17;;
4614;SDS011;2320;51.362;6.946;2024-01-27T05:54:27;21.30;;;7.63;;
4614;SDS011;2320;51.362;6.946;2024-01-27T05:56:53;13.57;;;7.27;;
4614;SDS011;2320;51.362;6.946;2024-01-27T05:59:19;19.83;;;7.73;;
4614;SDS011;2320;51.362;6.946;2024-01-27T06:01:44;13.00;;;8.37;;
4614;SDS011;2320;51.362;6.946;2024-01-27T06:04:10;13.50;;;7.17;;
4614;SDS011;2320;51.362;6.946;2024-01-27T06:06:39;23.37;;;8.10;;
4614;SDS011;2320;51.362;6.946;2024-01-27T06:09:05;14.23;;;7.17;;
4614;SDS011;2320;51.362;6.946;2024-01-27T06:11:31;19.67;;;7.90;;
4614;SDS011;2320;51.362;6.946;2024-01-27T06:13:56;19.23;;;7.43;;
4614;SDS011;2320;51.362;6.946;2024-01-27T06:16:23;17.03;;;8.03;;
4614;SDS011;2320;51.362;6.946;2024-01-27T06:18:48;18.87;;;9.53;;
4614;SDS011;2320;51.362;6.946;2024-01-27T06:21:14;19.80;;;7.13;;
4614;SDS011;2320;51.362;6.946;2024-01-27T06:23:40;17.13;;;7.43;;
4614;SDS011;2320;51.362;6.946;2024-01-27T06:26:06;16.33;;;6.40;;
4614;SDS011;2320;51.362;6.946;2024-01-27T06:28:32;15.90;;;7.23;;
4614;SDS011;2320;51.362;6.946;2024-01-27T06:30:59;13.97;;;7.27;;
4614;SDS011;2320;51.362;6.946;2024-01-27T06:33:28;17.40;;;8.20;;
4614;SDS011;2320;51.362;6.946;2024-01-27T06:35:54;17.70;;;7.83;;
4614;SDS011;2320;51.362;6.946;2024-01-27T06:38:19;17.03;;;7.20;;
4614;SDS011;2320;51.362;6.946;2024-01-27T06:40:45;18.20;;;6.40;;
4614;SDS011;2320;51.362;6.946;2024-01-27T06:43:11;10.43;;;6.60;;
4614;SDS011;2320;51.362;6.946;2024-01-27T06:45:37;13.40;;;7.87;;
4614;SDS011;2320;51.362;6.946;2024-01-27T06:48:04;15.10;;;7.10;;
4614;SDS011;2320;51.362;6.946;2024-01-27T06:50:30;15.63;;;7.90;;
4614;SDS011;2320;51.362;6.946;2024-01-27T06:52:55;27.67;;;17.80;;
4614;SDS011;2320;51.362;6.946;2024-01-27T06:55:21;25.97;;;13.80;;
4614;SDS011;2320;51.362;6.946;2024-01-27T06:57:46;24.47;;;10.63;;
4614;SDS011;2320;51.362;6.946;2024-01-27T07:00:12;15.20;;;9.17;;
4614;SDS011;2320;51.362;6.946;2024-01-27T07:02:41;25.60;;;11.00;;
4614;SDS011;2320;51.362;6.946;2024-01-27T07:05:07;17.97;;;8.27;;
4614;SDS011;2320;51.362;6.946;2024-01-27T07:07:34;19.07;;;8.63;;
4614;SDS011;2320;51.362;6.946;2024-01-27T07:10:00;22.83;;;10.57;;
4614;SDS011;2320;51.362;6.946;2024-01-27T07:12:25;26.57;;;12.07;;
4614;SDS011;2320;51.362;6.946;2024-01-27T07:14:51;21.40;;;15.10;;
4614;SDS011;2320;51.362;6.946;2024-01-27T07:17:17;30.33;;;13.13;;
4614;SDS011;2320;51.362;6.946;2024-01-27T07:19:43;16.27;;;8.90;;
4614;SDS011;2320;51.362;6.946;2024-01-27T07:22:09;14.37;;;8.17;;
4614;SDS011;2320;51.362;6.946;2024-01-27T07:24:34;19.30;;;7.60;;
4614;SDS011;2320;51.362;6.946;2024-01-27T07:27:00;12.00;;;8.47;;
4614;SDS011;2320;51.362;6.946;2024-01-27T07:29:26;23.37;;;10.27;;
4614;SDS011;2320;51.362;6.946;2024-01-27T07:31:52;22.33;;;9.83;;
4614;SDS011;2320;51.362;6.946;2024-01-27T07:34:18;19.93;;;8.10;;
4614;SDS011;2320;51.362;6.946;2024-01-27T07:36:44;15.20;;;7.80;;
4614;SDS011;2320;51.362;6.946;2024-01-27T07:39:10;17.50;;;8.00;;
4614;SDS011;2320;51.362;6.946;2024-01-27T07:41:36;28.43;;;9.20;;
4614;SDS011;2320;51.362;6.946;2024-01-27T07:44:08;34.43;;;9.80;;
4614;SDS011;2320;51.362;6.946;2024-01-27T07:46:35;20.90;;;9.80;;
4614;SDS011;2320;51.362;6.946;2024-01-27T07:49:01;24.70;;;9.20;;
4614;SDS011;2320;51.362;6.946;2024-01-27T07:51:28;14.40;;;7.70;;
4614;SDS011;2320;51.362;6.946;2024-01-27T07:53:53;19.80;;;9.90;;
4614;SDS011;2320;51.362;6.946;2024-01-27T07:56:19;21.33;;;10.03;;
4614;SDS011;2320;51.362;6.946;2024-01-27T07:58:44;24.20;;;8.93;;
4614;SDS011;2320;51.362;6.946;2024-01-27T08:01:10;24.17;;;9.80;;
4614;SDS011;2320;51.362;6.946;2024-01-27T08:03:40;17.60;;;7.40;;
4614;SDS011;2320;51.362;6.946;2024-01-27T08:06:06;13.37;;;7.03;;
4614;SDS011;2320;51.362;6.946;2024-01-27T08:08:35;25.17;;;8.13;;
4614;SDS011;2320;51.362;6.946;2024-01-27T08:11:00;16.30;;;7.20;;
4614;SDS011;2320;51.362;6.946;2024-01-27T08:13:26;14.27;;;7.20;;
4614;SDS011;2320;51.362;6.946;2024-01-27T08:15:51;17.13;;;7.50;;
4614;SDS011;2320;51.362;6.946;2024-01-27T08:18:17;16.50;;;6.73;;
4614;SDS011;2320;51.362;6.946;2024-01-27T08:20:43;11.67;;;5.73;;
4614;SDS011;2320;51.362;6.946;2024-01-27T08:23:08;8.27;;;5.77;;
4614;SDS011;2320;51.362;6.946;2024-01-27T08:25:34;20.13;;;6.43;;
4614;SDS011;2320;51.362;6.946;2024-01-27T08:27:59;21.00;;;10.33;;
4614;SDS011;2320;51.362;6.946;2024-01-27T08:30:25;22.90;;;10.20;;
4614;SDS011;2320;51.362;6.946;2024-01-27T08:32:51;14.70;;;5.60;;
4614;SDS011;2320;51.362;6.946;2024-01-27T08:35:16;12.50;;;5.63;;
4614;SDS011;2320;51.362;6.946;2024-01-27T08:37:42;15.20;;;6.13;;
4614;SDS011;2320;51.362;6.946;2024-01-27T08:40:07;18.40;;;5.23;;
4614;SDS011;2320;51.362;6.946;2024-01-27T08:42:33;12.37;;;4.60;;
4614;SDS011;2320;51.362;6.946;2024-01-27T08:44:59;20.00;;;5.97;;
4614;SDS011;2320;51.362;6.946;2024-01-27T08:47:25;11.53;;;5.60;;
4614;SDS011;2320;51.362;6.946;2024-01-27T08:49:50;12.63;;;5.60;;
4614;SDS011;2320;51.362;6.946;2024-01-27T08:52:16;7.47;;;4.87;;
4614;SDS011;2320;51.362;6.946;2024-01-27T08:54:41;11.50;;;4.60;;
4614;SDS011;2320;51.362;6.946;2024-01-27T08:57:07;13.70;;;5.23;;
4614;SDS011;2320;51.362;6.946;2024-01-27T08:59:33;12.30;;;6.63;;
4614;SDS011;2320;51.362;6.946;2024-01-27T09:01:59;12.83;;;4.53;;
4614;SDS011;2320;51.362;6.946;2024-01-27T09:04:24;14.07;;;4.97;;
4614;SDS011;2320;51.362;6.946;2024-01-27T09:06:50;16.00;;;5.83;;
4614;SDS011;2320;51.362;6.946;2024-01-27T09:09:15;16.03;;;5.47;;
4614;SDS011;2320;51.362;6.946;2024-01-27T09:11:42;12.80;;;4.73;;
4614;SDS011;2320;51.362;6.946;2024-01-27T09:14:07;14.77;;;5.73;;
4614;SDS011;2320;51.362;6.946;2024-01-27T09:16:33;15.27;;;5.80;;
4614;SDS011;2320;51.362;6.946;2024-01-27T09:18:59;8.30;;;4.63;;
4614;SDS011;2320;51.362;6.946;2024-01-27T09:21:25;14.10;;;5.53;;
4614;SDS011;2320;51.362;6.946;2024-01-27T09:23:54;16.70;;;5.47;;
4614;SDS011;2320;51.362;6.946;2024-01-27T09:26:20;12.20;;;5.80;;
4614;SDS011;2320;51.362;6.946;2024-01-27T09:28:45;9.93;;;4.70;;
4614;SDS011;2320;51.362;6.946;2024-01-27T09:31:18;11.43;;;5.13;;
4614;SDS011;2320;51.362;6.946;2024-01-27T09:33:51;11.97;;;5.00;;
4614;SDS011;2320;51.362;6.946;2024-01-27T09:36:17;11.27;;;5.20;;
4614;SDS011;2320;51.362;6.946;2024-01-27T09:38:43;11.97;;;5.50;;
4614;SDS011;2320;51.362;6.946;2024-01-27T09:41:09;11.40;;;5.40;;
4614;SDS011;2320;51.362;6.946;2024-01-27T09:43:37;13.30;;;5.73;;
4614;SDS011;2320;51.362;6.946;2024-01-27T09:46:05;11.50;;;4.97;;
4614;SDS011;2320;51.362;6.946;2024-01-27T09:48:31;16.63;;;4.90;;
4614;SDS011;2320;51.362;6.946;2024-01-27T09:50:58;10.63;;;5.53;;
4614;SDS011;2320;51.362;6.946;2024-01-27T09:53:24;10.03;;;5.17;;
4614;SDS011;2320;51.362;6.946;2024-01-27T09:55:50;18.50;;;5.10;;
4614;SDS011;2320;51.362;6.946;2024-01-27T09:58:16;12.27;;;4.70;;
4614;SDS011;2320;51.362;6.946;2024-01-27T10:00:42;21.80;;;5.23;;
4614;SDS011;2320;51.362;6.946;2024-01-27T10:03:08;13.43;;;5.70;;
4614;SDS011;2320;51.362;6.946;2024-01-27T10:05:35;13.47;;;6.33;;
4614;SDS011;2320;51.362;6.946;2024-01-27T10:08:01;12.37;;;4.50;;
4614;SDS011;2320;51.362;6.946;2024-01-27T10:10:30;14.83;;;5.60;;
4614;SDS011;2320;51.362;6.946;2024-01-27T10:12:56;12.13;;;5.00;;
4614;SDS011;2320;51.362;6.946;2024-01-27T10:15:25;13.97;;;5.27;;
4614;SDS011;2320;51.362;6.946;2024-01-27T10:17:52;13.43;;;4.93;;
4614;SDS011;2320;51.362;6.946;2024-01-27T10:20:18;12.20;;;5.97;;
4614;SDS011;2320;51.362;6.946;2024-01-27T10:22:44;14.10;;;5.23;;
4614;SDS011;2320;51.362;6.946;2024-01-27T10:25:10;9.00;;;4.90;;
4614;SDS011;2320;51.362;6.946;2024-01-27T10:27:37;16.73;;;5.57;;
4614;SDS011;2320;51.362;6.946;2024-01-27T10:30:04;8.67;;;4.90;;
4614;SDS011;2320;51.362;6.946;2024-01-27T10:32:32;18.57;;;5.03;;
4614;SDS011;2320;51.362;6.946;2024-01-27T10:35:01;16.00;;;5.90;;
4614;SDS011;2320;51.362;6.946;2024-01-27T10:37:28;15.87;;;5.77;;
4614;SDS011;2320;51.362;6.946;2024-01-27T10:40:03;18.67;;;6.20;;
4614;SDS011;2320;51.362;6.946;2024-01-27T10:42:29;11.80;;;5.70;;
4614;SDS011;2320;51.362;6.946;2024-01-27T10:44:58;12.10;;;5.73;;
4614;SDS011;2320;51.362;6.946;2024-01-27T10:47:28;17.90;;;6.43;;
4614;SDS011;2320;51.362;6.946;2024-01-27T10:49:56;9.90;;;5.07;;
4614;SDS011;2320;51.362;6.946;2024-01-27T10:52:28;14.33;;;5.60;;
4614;SDS011;2320;51.362;6.946;2024-01-27T10:54:59;12.97;;;5.07;;
4614;SDS011;2320;51.362;6.946;2024-01-27T10:57:26;10.90;;;5.10;;
4614;SDS011;2320;51.362;6.946;2024-01-27T10:59:55;13.67;;;5.00;;
4614;SDS011;2320;51.362;6.946;2024-01-27T11:02:22;17.43;;;5.60;;
4614;SDS011;2320;51.362;6.946;2024-01-27T11:04:48;12.43;;;5.93;;
4614;SDS011;2320;51.362;6.946;2024-01-27T11:07:16;12.50;;;5.80;;
4614;SDS011;2320;51.362;6.946;2024-01-27T11:09:44;12.53;;;5.00;;
4614;SDS011;2320;51.362;6.946;2024-01-27T11:12:10;20.07;;;5.67;;
4614;SDS011;2320;51.362;6.946;2024-01-27T11:14:37;13.50;;;4.70;;
4614;SDS011;2320;51.362;6.946;2024-01-27T11:17:02;12.87;;;5.20;;
4614;SDS011;2320;51.362;6.946;2024-01-27T11:19:28;18.23;;;5.33;;
4614;SDS011;2320;51.362;6.946;2024-01-27T11:22:03;20.37;;;5.20;;
4614;SDS011;2320;51.362;6.946;2024-01-27T11:24:29;23.57;;;5.60;;
4614;SDS011;2320;51.362;6.946;2024-01-27T11:27:02;11.43;;;5.97;;
4614;SDS011;2320;51.362;6.946;2024-01-27T11:29:28;13.07;;;4.10;;
4614;SDS011;2320;51.362;6.946;2024-01-27T11:31:54;13.67;;;6.03;;
4614;SDS011;2320;51.362;6.946;2024-01-27T11:34:21;15.27;;;5.70;;
4614;SDS011;2320;51.362;6.946;2024-01-27T11:36:46;13.87;;;6.07;;
4614;SDS011;2320;51.362;6.946;2024-01-27T11:39:28;9.00;;;4.03;;
4614;SDS011;2320;51.362;6.946;2024-01-27T11:42:07;16.43;;;5.27;;
4614;SDS011;2320;51.362;6.946;2024-01-27T11:44:37;13.20;;;4.73;;
4614;SDS011;2320;51.362;6.946;2024-01-27T11:47:04;9.23;;;4.67;;
4614;SDS011;2320;51.362;6.946;2024-01-27T11:49:30;17.50;;;5.77;;
4614;SDS011;2320;51.362;6.946;2024-01-27T11:51:56;16.80;;;5.50;;
4614;SDS011;2320;51.362;6.946;2024-01-27T11:54:21;14.13;;;4.93;;
4614;SDS011;2320;51.362;6.946;2024-01-27T11:56:47;12.23;;;6.30;;
4614;SDS011;2320;51.362;6.946;2024-01-27T11:59:14;12.70;;;5.50;;
4614;SDS011;2320;51.362;6.946;2024-01-27T12:01:40;13.90;;;4.83;;
4614;SDS011;2320;51.362;6.946;2024-01-27T12:04:05;16.33;;;6.50;;
4614;SDS011;2320;51.362;6.946;2024-01-27T12:06:32;16.00;;;5.70;;
4614;SDS011;2320;51.362;6.946;2024-01-27T12:08:57;8.13;;;4.43;;
4614;SDS011;2320;51.362;6.946;2024-01-27T12:11:24;12.70;;;4.87;;
4614;SDS011;2320;51.362;6.946;2024-01-27T12:13:50;15.33;;;6.57;;
4614;SDS011;2320;51.362;6.946;2024-01-27T12:16:17;16.77;;;5.47;;
4614;SDS011;2320;51.362;6.946;2024-01-27T12:18:43;14.67;;;5.50;;
4614;SDS011;2320;51.362;6.946;2024-01-27T12:21:09;17.00;;;6.27;;
4614;SDS011;2320;51.362;6.946;2024-01-27T12:23:35;14.83;;;6.30;;
4614;SDS011;2320;51.362;6.946;2024-01-27T12:26:01;8.70;;;4.33;;
4614;SDS011;2320;51.362;6.946;2024-01-27T12:28:26;15.00;;;3.97;;
4614;SDS011;2320;51.362;6.946;2024-01-27T12:30:53;24.77;;;4.93;;
4614;SDS011;2320;51.362;6.946;2024-01-27T12:33:18;12.70;;;5.57;;
4614;SDS011;2320;51.362;6.946;2024-01-27T12:35:48;30.17;;;6.10;;
4614;SDS011;2320;51.362;6.946;2024-01-27T12:38:14;13.40;;;5.30;;
4614;SDS011;2320;51.362;6.946;2024-01-27T12:40:42;17.20;;;4.90;;
4614;SDS011;2320;51.362;6.946;2024-01-27T12:43:07;11.40;;;4.00;;
4614;SDS011;2320;51.362;6.946;2024-01-27T12:45:34;15.40;;;5.70;;
4614;SDS011;2320;51.362;6.946;2024-01-27T12:48:00;18.23;;;6.70;;
4614;SDS011;2320;51.362;6.946;2024-01-27T12:50:27;9.23;;;4.50;;
4614;SDS011;2320;51.362;6.946;2024-01-27T12:52:52;11.77;;;5.17;;
4614;SDS011;2320;51.362;6.946;2024-01-27T12:55:19;13.37;;;4.83;;
4614;SDS011;2320;51.362;6.946;2024-01-27T12:57:45;18.83;;;5.97;;
4614;SDS011;2320;51.362;6.946;2024-01-27T13:00:12;13.50;;;4.27;;
4614;SDS011;2320;51.362;6.946;2024-01-27T13:02:39;13.60;;;4.37;;
4614;SDS011;2320;51.362;6.946;2024-01-27T13:05:05;12.67;;;4.53;;
4614;SDS011;2320;51.362;6.946;2024-01-27T13:07:31;19.43;;;5.27;;
4614;SDS011;2320;51.362;6.946;2024-01-27T13:09:57;22.27;;;4.53;;
4614;SDS011;2320;51.362;6.946;2024-01-27T13:12:23;18.57;;;4.80;;
4614;SDS011;2320;51.362;6.946;2024-01-27T13:14:48;15.77;;;5.00;;
4614;SDS011;2320;51.362;6.946;2024-01-27T13:17:14;14.17;;;4.63;;
4614;SDS011;2320;51.362;6.946;2024-01-27T13:19:40;12.10;;;4.70;;
4614;SDS011;2320;51.362;6.946;2024-01-27T13:22:06;14.63;;;5.10;;
4614;SDS011;2320;51.362;6.946;2024-01-27T13:24:32;21.83;;;4.90;;
4614;SDS011;2320;51.362;6.946;2024-01-27T13:26:58;15.43;;;5.33;;
4614;SDS011;2320;51.362;6.946;2024-01-27T13:29:25;15.33;;;5.33;;
4614;SDS011;2320;51.362;6.946;2024-01-27T13:31:52;15.00;;;5.03;;
4614;SDS011;2320;51.362;6.946;2024-01-27T13:34:17;12.03;;;5.47;;
4614;SDS011;2320;51.362;6.946;2024-01-27T13:36:43;15.53;;;4.73;;
4614;SDS011;2320;51.362;6.946;2024-01-27T13:39:09;12.50;;;6.27;;
4614;SDS011;2320;51.362;6.946;2024-01-27T13:41:34;11.07;;;5.13;;
4614;SDS011;2320;51.362;6.946;2024-01-27T13:44:00;13.17;;;5.07;;
4614;SDS011;2320;51.362;6.946;2024-01-27T13:46:26;16.97;;;4.83;;
4614;SDS011;2320;51.362;6.946;2024-01-27T13:48:53;15.20;;;5.30;;
4614;SDS011;2320;51.362;6.946;2024-01-27T13:51:19;12.60;;;5.80;;
4614;SDS011;2320;51.362;6.946;2024-01-27T13:53:44;9.70;;;4.73;;
4614;SDS011;2320;51.362;6.946;2024-01-27T13:56:10;9.30;;;5.00;;
4614;SDS011;2320;51.362;6.946;2024-01-27T13:58:35;15.83;;;6.77;;
4614;SDS011;2320;51.362;6.946;2024-01-27T14:01:01;15.70;;;5.60;;
4614;SDS011;2320;51.362;6.946;2024-01-27T14:03:28;20.23;;;4.93;;
4614;SDS011;2320;51.362;6.946;2024-01-27T14:05:54;12.23;;;5.27;;
4614;SDS011;2320;51.362;6.946;2024-01-27T14:08:19;10.30;;;4.33;;
4614;SDS011;2320;51.362;6.946;2024-01-27T14:10:45;10.07;;;4.60;;
4614;SDS011;2320;51.362;6.946;2024-01-27T14:13:13;13.63;;;5.40;;
4614;SDS011;2320;51.362;6.946;2024-01-27T14:15:38;24.10;;;8.10;;
4614;SDS011;2320;51.362;6.946;2024-01-27T14:18:04;13.13;;;5.23;;
4614;SDS011;2320;51.362;6.946;2024-01-27T14:20:34;16.07;;;5.53;;
4614;SDS011;2320;51.362;6.946;2024-01-27T14:23:02;14.07;;;5.43;;
4614;SDS011;2320;51.362;6.946;2024-01-27T14:25:28;13.23;;;5.10;;
4614;SDS011;2320;51.362;6.946;2024-01-27T14:27:54;17.70;;;4.80;;
4614;SDS011;2320;51.362;6.946;2024-01-27T14:30:20;13.70;;;5.27;;
4614;SDS011;2320;51.362;6.946;2024-01-27T14:32:46;19.80;;;5.63;;
4614;SDS011;2320;51.362;6.946;2024-01-27T14:35:11;15.00;;;4.80;;
4614;SDS011;2320;51.362;6.946;2024-01-27T14:37:37;10.17;;;5.30;;
4614;SDS011;2320;51.362;6.946;2024-01-27T14:40:03;10.83;;;4.37;;
4614;SDS011;2320;51.362;6.946;2024-01-27T14:42:33;15.90;;;4.63;;
4614;SDS011;2320;51.362;6.946;2024-01-27T14:45:01;16.53;;;5.27;;
4614;SDS011;2320;51.362;6.946;2024-01-27T14:47:27;15.30;;;4.07;;
4614;SDS011;2320;51.362;6.946;2024-01-27T14:49:52;14.30;;;4.50;;
4614;SDS011;2320;51.362;6.946;2024-01-27T14:52:18;11.07;;;4.63;;
4614;SDS011;2320;51.362;6.946;2024-01-27T14:54:44;13.37;;;4.60;;
4614;SDS011;2320;51.362;6.946;2024-01-27T14:57:10;8.60;;;3.80;;
4614;SDS011;2320;51.362;6.946;2024-01-27T14:59:36;14.00;;;4.77;;